createdAt,value
2022-08-12T00:00:16.000Z,0.00
2022-08-12T00:00:16.000Z,0.00
2022-08-12T00:00:36.000Z,0.00
2022-08-12T00:00:36.000Z,0.00
2022-08-12T00:01:06.000Z,0.00
2022-08-12T00:01:06.000Z,0.00
2022-08-12T00:01:36.000Z,0.00
2022-08-12T00:01:36.000Z,0.00
2022-08-12T00:01:52.000Z,0.00
2022-08-12T00:02:26.000Z,0.00
2022-08-12T00:02:47.000Z,0.00
2022-08-12T00:03:19.000Z,0.00
2022-08-12T00:03:46.000Z,0.00
2022-08-12T00:04:16.000Z,0.00
2022-08-12T00:04:44.000Z,0.00
2022-08-12T00:05:06.000Z,0.00
2022-08-12T00:05:41.000Z,0.00
2022-08-12T00:06:11.000Z,0.00
2022-08-12T00:06:41.000Z,0.00
2022-08-12T00:07:16.000Z,0.00
2022-08-12T00:07:46.000Z,0.00
2022-08-12T00:08:16.000Z,0.00
2022-08-12T00:08:36.000Z,0.00
2022-08-12T00:09:06.000Z,0.00
2022-08-12T00:09:36.000Z,0.00
2022-08-12T00:10:11.000Z,0.00
2022-08-12T00:10:41.000Z,0.00
2022-08-12T00:11:16.000Z,0.00
2022-08-12T00:11:46.000Z,0.00
2022-08-12T00:12:16.000Z,0.00
2022-08-12T00:12:46.000Z,0.00
2022-08-12T00:13:08.000Z,0.00
2022-08-12T00:13:36.000Z,0.00
2022-08-12T00:14:11.000Z,0.00
2022-08-12T00:14:39.000Z,0.00
2022-08-12T00:15:01.000Z,0.00
2022-08-12T00:15:31.000Z,0.00
2022-08-12T00:16:01.000Z,0.00
2022-08-12T00:16:36.000Z,0.00
2022-08-12T00:17:06.000Z,0.00
2022-08-12T00:17:36.000Z,0.00
2022-08-12T00:18:11.000Z,0.00
2022-08-12T00:18:41.000Z,0.00
2022-08-12T00:19:16.000Z,0.00
2022-08-12T00:19:46.000Z,0.00
2022-08-12T00:20:16.000Z,0.00
2022-08-12T00:20:44.000Z,0.00
2022-08-12T00:21:16.000Z,0.00
2022-08-12T00:21:36.000Z,0.00
2022-08-12T00:22:11.000Z,0.00
2022-08-12T00:22:41.000Z,0.00
2022-08-12T00:23:16.000Z,0.00
2022-08-12T00:23:46.000Z,0.00
2022-08-12T00:24:16.000Z,0.00
2022-08-12T00:24:44.000Z,0.00
2022-08-12T00:25:06.000Z,0.00
2022-08-12T00:25:41.000Z,0.00
2022-08-12T00:26:11.000Z,0.00
2022-08-12T00:26:41.000Z,0.00
2022-08-12T00:27:16.000Z,0.00
2022-08-12T00:27:46.000Z,0.00
2022-08-12T00:28:19.000Z,0.00
2022-08-12T00:28:44.000Z,0.00
2022-08-12T00:29:06.000Z,0.00
2022-08-12T00:29:36.000Z,0.00
2022-08-12T00:30:11.000Z,0.00
2022-08-12T00:30:41.000Z,0.00
2022-08-12T00:31:16.000Z,0.00
2022-08-12T00:31:46.000Z,0.00
2022-08-12T00:32:16.000Z,0.00
2022-08-12T00:32:44.000Z,0.00
2022-08-12T00:33:06.000Z,0.00
2022-08-12T00:33:41.000Z,0.00
2022-08-12T00:34:11.000Z,0.00
2022-08-12T00:34:41.000Z,0.00
2022-08-12T00:35:11.000Z,0.00
2022-08-12T00:35:36.000Z,0.00
2022-08-12T00:36:10.000Z,0.00
2022-08-12T00:36:36.000Z,0.00
2022-08-12T00:37:03.000Z,0.00
2022-08-12T00:37:29.000Z,0.00
2022-08-12T00:37:56.000Z,0.00
2022-08-12T00:38:23.000Z,0.00
2022-08-12T00:38:51.000Z,0.00
2022-08-12T00:39:16.000Z,0.00
2022-08-12T00:39:43.000Z,0.00
2022-08-12T00:40:11.000Z,0.00
2022-08-12T00:40:36.000Z,0.00
2022-08-12T00:41:03.000Z,0.00
2022-08-12T00:41:36.000Z,0.00
2022-08-12T00:41:56.000Z,0.00
2022-08-12T00:42:23.000Z,0.00
2022-08-12T00:42:51.000Z,0.00
2022-08-12T00:43:16.000Z,0.00
2022-08-12T00:43:46.000Z,0.00
2022-08-12T00:44:16.000Z,0.00
2022-08-12T00:44:36.000Z,0.00
2022-08-12T00:45:06.000Z,0.00
2022-08-12T00:45:36.000Z,0.00
2022-08-12T00:46:11.000Z,0.00
2022-08-12T00:46:41.000Z,0.00
2022-08-12T00:47:16.000Z,0.00
2022-08-12T00:47:46.000Z,0.00
2022-08-12T00:48:16.000Z,0.00
2022-08-12T00:48:44.000Z,0.00
2022-08-12T00:49:06.000Z,0.00
2022-08-12T00:49:36.000Z,0.00
2022-08-12T00:49:52.000Z,0.00
2022-08-12T00:50:23.000Z,0.00
2022-08-12T00:50:51.000Z,0.00
2022-08-12T00:51:16.000Z,0.00
2022-08-12T00:51:43.000Z,0.00
2022-08-12T00:52:11.000Z,0.00
2022-08-12T00:52:36.000Z,0.00
2022-08-12T00:53:03.000Z,0.00
2022-08-12T00:53:29.000Z,0.00
2022-08-12T00:53:56.000Z,0.00
2022-08-12T00:54:23.000Z,0.00
2022-08-12T00:54:51.000Z,0.00
2022-08-12T00:55:16.000Z,0.00
2022-08-12T00:55:43.000Z,0.00
2022-08-12T00:56:11.000Z,0.00
2022-08-12T00:56:36.000Z,0.00
2022-08-12T00:57:03.000Z,0.00
2022-08-12T00:57:42.000Z,0.00
2022-08-12T00:58:11.000Z,0.00
2022-08-12T00:58:41.000Z,0.00
2022-08-12T00:59:16.000Z,0.00
2022-08-12T00:59:46.000Z,0.00
2022-08-12T01:00:19.000Z,0.00
2022-08-12T01:00:44.000Z,0.00
2022-08-12T01:01:06.000Z,0.00
2022-08-12T01:01:36.000Z,0.00
2022-08-12T01:01:52.000Z,0.00
2022-08-12T01:02:26.000Z,0.00
2022-08-12T01:02:48.000Z,0.00
2022-08-12T01:03:16.000Z,0.00
2022-08-12T01:03:43.000Z,0.00
2022-08-12T01:04:11.000Z,0.00
2022-08-12T01:04:36.000Z,0.00
2022-08-12T01:05:06.000Z,0.00
2022-08-12T01:05:41.000Z,0.00
2022-08-12T01:06:11.000Z,0.00
2022-08-12T01:06:41.000Z,0.00
2022-08-12T01:07:17.000Z,0.00
2022-08-12T01:07:47.000Z,0.00
2022-08-12T01:08:17.000Z,0.00
2022-08-12T01:08:44.000Z,0.00
2022-08-12T01:09:06.000Z,0.00
2022-08-12T01:09:36.000Z,0.00
2022-08-12T01:09:52.000Z,0.00
2022-08-12T01:10:26.000Z,0.00
2022-08-12T01:10:51.000Z,0.00
2022-08-12T01:11:16.000Z,0.00
2022-08-12T01:11:46.000Z,0.00
2022-08-12T01:12:16.000Z,0.00
2022-08-12T01:12:37.000Z,0.00
2022-08-12T01:13:06.000Z,0.00
2022-08-12T01:13:41.000Z,0.00
2022-08-12T01:14:11.000Z,0.00
2022-08-12T01:14:41.000Z,0.00
2022-08-12T01:15:16.000Z,0.00
2022-08-12T01:15:46.000Z,0.00
2022-08-12T01:16:16.000Z,0.00
2022-08-12T01:16:44.000Z,0.00
2022-08-12T01:17:06.000Z,0.00
2022-08-12T01:17:44.000Z,0.00
2022-08-12T01:18:11.000Z,0.00
2022-08-12T01:18:39.000Z,0.00
2022-08-12T01:19:11.000Z,0.00
2022-08-12T01:19:56.000Z,0.00
2022-08-12T01:20:18.000Z,0.00
2022-08-12T01:20:46.000Z,0.00
2022-08-12T01:21:08.000Z,0.00
2022-08-12T01:21:36.000Z,0.00
2022-08-12T01:22:11.000Z,0.00
2022-08-12T01:22:51.000Z,0.00
2022-08-12T01:23:16.000Z,0.00
2022-08-12T01:23:43.000Z,0.00
2022-08-12T01:24:16.000Z,0.00
2022-08-12T01:24:46.000Z,0.00
2022-08-12T01:25:03.000Z,0.00
2022-08-12T01:25:21.000Z,0.00
2022-08-12T01:25:46.000Z,0.00
2022-08-12T01:26:26.000Z,0.00
2022-08-12T01:26:48.000Z,0.00
2022-08-12T01:27:16.000Z,0.00
2022-08-12T01:27:46.000Z,0.00
2022-08-12T01:28:16.000Z,0.00
2022-08-12T01:28:44.000Z,0.00
2022-08-12T01:29:06.000Z,0.00
2022-08-12T01:29:41.000Z,0.00
2022-08-12T01:30:11.000Z,0.00
2022-08-12T01:30:41.000Z,0.00
2022-08-12T01:31:16.000Z,0.00
2022-08-12T01:31:47.000Z,0.00
2022-08-12T01:32:18.000Z,0.00
2022-08-12T01:32:46.000Z,0.00
2022-08-12T01:33:08.000Z,0.00
2022-08-12T01:33:36.000Z,0.00
2022-08-12T01:34:02.000Z,0.00
2022-08-12T01:34:27.000Z,0.00
2022-08-12T01:34:48.000Z,0.00
2022-08-12T01:35:16.000Z,0.00
2022-08-12T01:35:46.000Z,0.00
2022-08-12T01:36:16.000Z,0.00
2022-08-12T01:36:44.000Z,0.00
2022-08-12T01:37:06.000Z,0.00
2022-08-12T01:37:41.000Z,0.00
2022-08-12T01:38:11.000Z,0.00
2022-08-12T01:38:41.000Z,0.00
2022-08-12T01:39:16.000Z,0.00
2022-08-12T01:39:46.000Z,0.00
2022-08-12T01:40:16.000Z,0.00
2022-08-12T01:40:44.000Z,0.00
2022-08-12T01:41:07.000Z,0.00
2022-08-12T01:41:41.000Z,0.00
2022-08-12T01:42:11.000Z,0.00
2022-08-12T01:42:41.000Z,0.00
2022-08-12T01:43:16.000Z,0.00
2022-08-12T01:43:46.000Z,0.00
2022-08-12T01:44:16.000Z,0.00
2022-08-12T01:44:44.000Z,0.00
2022-08-12T01:45:06.000Z,0.00
2022-08-12T01:45:36.000Z,0.00
2022-08-12T01:46:11.000Z,0.00
2022-08-12T01:46:41.000Z,0.00
2022-08-12T01:47:16.000Z,0.00
2022-08-12T01:47:46.000Z,0.00
2022-08-12T01:48:26.000Z,0.00
2022-08-12T01:48:52.000Z,0.00
2022-08-12T01:49:19.000Z,0.00
2022-08-12T01:49:36.000Z,0.00
2022-08-12T01:50:11.000Z,0.00
2022-08-12T01:50:41.000Z,0.00
2022-08-12T01:51:16.000Z,0.00
2022-08-12T01:51:46.000Z,0.00
2022-08-12T01:52:16.000Z,0.00
2022-08-12T01:52:44.000Z,0.00
2022-08-12T01:53:06.000Z,0.00
2022-08-12T01:53:41.000Z,0.00
2022-08-12T01:54:11.000Z,0.00
2022-08-12T01:54:41.000Z,0.00
2022-08-12T01:55:16.000Z,0.00
2022-08-12T01:55:56.000Z,0.00
2022-08-12T01:56:16.000Z,0.00
2022-08-12T01:56:44.000Z,0.00
2022-08-12T01:57:06.000Z,0.00
2022-08-12T01:57:36.000Z,0.00
2022-08-12T01:58:07.000Z,0.00
2022-08-12T01:58:26.000Z,0.00
2022-08-12T01:58:47.000Z,0.00
2022-08-12T01:59:16.000Z,0.00
2022-08-12T01:59:46.000Z,0.00
2022-08-12T02:00:16.000Z,0.00
2022-08-12T02:00:44.000Z,0.00
2022-08-12T02:01:06.000Z,0.00
2022-08-12T02:01:36.000Z,0.00
2022-08-12T02:01:52.000Z,0.00
2022-08-12T02:02:26.000Z,0.00
2022-08-12T02:02:49.000Z,0.00
2022-08-12T02:03:16.000Z,0.00
2022-08-12T02:03:46.000Z,0.00
2022-08-12T02:04:16.000Z,0.00
2022-08-12T02:04:44.000Z,0.00
2022-08-12T02:05:06.000Z,0.00
2022-08-12T02:05:36.000Z,0.00
2022-08-12T02:05:52.000Z,0.00
2022-08-12T02:06:26.000Z,0.00
2022-08-12T02:06:47.000Z,0.00
2022-08-12T02:07:16.000Z,0.00
2022-08-12T02:07:46.000Z,0.00
2022-08-12T02:08:16.000Z,0.00
2022-08-12T02:08:36.000Z,0.00
2022-08-12T02:09:16.000Z,0.00
2022-08-12T02:09:46.000Z,0.00
2022-08-12T02:10:11.000Z,0.00
2022-08-12T02:10:41.000Z,0.00
2022-08-12T02:11:16.000Z,0.00
2022-08-12T02:11:46.000Z,0.00
2022-08-12T02:12:16.000Z,0.00
2022-08-12T02:12:36.000Z,0.00
2022-08-12T02:13:06.000Z,0.00
2022-08-12T02:13:41.000Z,0.00
2022-08-12T02:14:11.000Z,0.00
2022-08-12T02:14:41.000Z,0.00
2022-08-12T02:15:16.000Z,0.00
2022-08-12T02:15:46.000Z,0.00
2022-08-12T02:16:26.000Z,0.00
2022-08-12T02:16:52.000Z,0.00
2022-08-12T02:17:19.000Z,0.00
2022-08-12T02:17:36.000Z,0.00
2022-08-12T02:17:53.000Z,0.00
2022-08-12T02:18:26.000Z,0.00
2022-08-12T02:18:47.000Z,0.00
2022-08-12T02:18:47.000Z,0.00
2022-08-12T02:19:16.000Z,0.00
2022-08-12T02:19:16.000Z,0.00
2022-08-12T02:19:46.000Z,0.00
2022-08-12T02:19:46.000Z,0.00
2022-08-12T02:20:16.000Z,0.00
2022-08-12T02:20:16.000Z,0.00
2022-08-12T02:20:36.000Z,0.00
2022-08-12T02:20:36.000Z,0.00
2022-08-12T02:20:52.000Z,0.00
2022-08-12T02:21:20.000Z,0.00
2022-08-12T02:21:36.000Z,0.00
2022-08-12T02:21:53.000Z,0.00
2022-08-12T02:22:26.000Z,0.00
2022-08-12T02:22:47.000Z,0.00
2022-08-12T02:23:16.000Z,0.00
2022-08-12T02:23:56.000Z,0.00
2022-08-12T02:24:18.000Z,0.00
2022-08-12T02:24:46.000Z,0.00
2022-08-12T02:25:08.000Z,0.00
2022-08-12T02:25:36.000Z,0.00
2022-08-12T02:26:11.000Z,0.00
2022-08-12T02:26:51.000Z,0.00
2022-08-12T02:27:16.000Z,0.00
2022-08-12T02:27:46.000Z,0.00
2022-08-12T02:28:16.000Z,0.00
2022-08-12T02:28:44.000Z,0.00
2022-08-12T02:29:06.000Z,0.00
2022-08-12T02:29:36.000Z,0.00
2022-08-12T02:30:11.000Z,0.00
2022-08-12T02:30:41.000Z,0.00
2022-08-12T02:31:16.000Z,0.00
2022-08-12T02:31:46.000Z,0.00
2022-08-12T02:32:16.000Z,0.00
2022-08-12T02:32:44.000Z,0.00
2022-08-12T02:33:16.000Z,0.00
2022-08-12T02:33:36.000Z,0.00
2022-08-12T02:34:11.000Z,0.00
2022-08-12T02:34:41.000Z,0.00
2022-08-12T02:35:16.000Z,0.00
2022-08-12T02:35:46.000Z,0.00
2022-08-12T02:36:16.000Z,0.00
2022-08-12T02:36:44.000Z,0.00
2022-08-12T02:37:06.000Z,0.00
2022-08-12T02:37:36.000Z,0.00
2022-08-12T02:38:12.000Z,0.00
2022-08-12T02:38:41.000Z,0.00
2022-08-12T02:39:16.000Z,0.00
2022-08-12T02:39:56.000Z,0.00
2022-08-12T02:40:16.000Z,0.00
2022-08-12T02:40:44.000Z,0.00
2022-08-12T02:41:06.000Z,0.00
2022-08-12T02:41:36.000Z,0.00
2022-08-12T02:42:11.000Z,0.00
2022-08-12T02:42:41.000Z,0.00
2022-08-12T02:43:16.000Z,0.00
2022-08-12T02:43:46.000Z,0.00
2022-08-12T02:44:16.000Z,0.00
2022-08-12T02:44:44.000Z,0.00
2022-08-12T02:45:06.000Z,0.00
2022-08-12T02:45:36.000Z,0.00
2022-08-12T02:45:36.000Z,0.00
2022-08-12T02:46:11.000Z,0.00
2022-08-12T02:46:11.000Z,0.00
2022-08-12T02:46:39.000Z,0.00
2022-08-12T02:46:39.000Z,0.00
2022-08-12T02:47:02.000Z,0.00
2022-08-12T02:47:02.000Z,0.00
2022-08-12T02:47:27.000Z,0.00
2022-08-12T02:47:27.000Z,0.00
2022-08-12T02:47:44.000Z,0.00
2022-08-12T02:48:26.000Z,0.00
2022-08-12T02:48:52.000Z,0.00
2022-08-12T02:49:19.000Z,0.00
2022-08-12T02:49:36.000Z,0.00
2022-08-12T02:50:11.000Z,0.00
2022-08-12T02:50:41.000Z,0.00
2022-08-12T02:51:16.000Z,0.00
2022-08-12T02:51:46.000Z,0.00
2022-08-12T02:52:16.000Z,0.00
2022-08-12T02:52:44.000Z,0.00
2022-08-12T02:53:03.000Z,0.00
2022-08-12T02:53:20.000Z,0.00
2022-08-12T02:53:46.000Z,0.00
2022-08-12T02:54:11.000Z,0.00
2022-08-12T02:54:41.000Z,0.00
2022-08-12T02:55:16.000Z,0.00
2022-08-12T02:55:46.000Z,0.00
2022-08-12T02:56:17.000Z,0.00
2022-08-12T02:56:44.000Z,0.00
2022-08-12T02:57:06.000Z,0.00
2022-08-12T02:57:36.000Z,0.00
2022-08-12T02:58:11.000Z,0.00
2022-08-12T02:58:41.000Z,0.00
2022-08-12T02:59:16.000Z,0.00
2022-08-12T02:59:46.000Z,0.00
2022-08-12T03:00:16.000Z,0.00
2022-08-12T03:00:44.000Z,0.00
2022-08-12T03:01:06.000Z,0.00
2022-08-12T03:01:36.000Z,0.00
2022-08-12T03:02:11.000Z,0.00
2022-08-12T03:02:41.000Z,0.00
2022-08-12T03:03:11.000Z,0.00
2022-08-12T03:03:29.000Z,0.00
2022-08-12T03:03:56.000Z,0.00
2022-08-12T03:04:16.000Z,0.00
2022-08-12T03:04:44.000Z,0.00
2022-08-12T03:05:06.000Z,0.00
2022-08-12T03:05:36.000Z,0.00
2022-08-12T03:06:11.000Z,0.00
2022-08-12T03:06:41.000Z,0.00
2022-08-12T03:07:16.000Z,0.00
2022-08-12T03:07:46.000Z,0.00
2022-08-12T03:08:16.000Z,0.00
2022-08-12T03:08:44.000Z,0.00
2022-08-12T03:09:06.000Z,0.00
2022-08-12T03:09:36.000Z,0.00
2022-08-12T03:10:11.000Z,0.00
2022-08-12T03:10:51.000Z,0.00
2022-08-12T03:11:16.000Z,0.00
2022-08-12T03:11:46.000Z,0.00
2022-08-12T03:12:19.000Z,0.00
2022-08-12T03:12:44.000Z,0.00
2022-08-12T03:13:06.000Z,0.00
2022-08-12T03:13:36.000Z,0.00
2022-08-12T03:14:11.000Z,0.00
2022-08-12T03:14:41.000Z,0.00
2022-08-12T03:15:16.000Z,0.00
2022-08-12T03:15:46.000Z,0.00
2022-08-12T03:16:16.000Z,0.00
2022-08-12T03:16:36.000Z,0.00
2022-08-12T03:17:06.000Z,0.00
2022-08-12T03:17:46.000Z,0.00
2022-08-12T03:18:11.000Z,0.00
2022-08-12T03:18:41.000Z,0.00
2022-08-12T03:19:16.000Z,0.00
2022-08-12T03:19:46.000Z,0.00
2022-08-12T03:19:46.000Z,0.00
2022-08-12T03:20:16.000Z,0.00
2022-08-12T03:20:16.000Z,0.00
2022-08-12T03:20:36.000Z,0.00
2022-08-12T03:20:36.000Z,0.00
2022-08-12T03:21:06.000Z,0.00
2022-08-12T03:21:06.000Z,0.00
2022-08-12T03:21:36.000Z,0.00
2022-08-12T03:21:36.000Z,0.00
2022-08-12T03:21:52.000Z,0.00
2022-08-12T03:22:26.000Z,0.00
2022-08-12T03:22:47.000Z,0.00
2022-08-12T03:23:16.000Z,0.00
2022-08-12T03:23:46.000Z,0.00
2022-08-12T03:24:16.000Z,0.00
2022-08-12T03:24:44.000Z,0.00
2022-08-12T03:25:03.000Z,0.00
2022-08-12T03:25:29.000Z,0.00
2022-08-12T03:25:56.000Z,0.00
2022-08-12T03:26:23.000Z,0.00
2022-08-12T03:26:51.000Z,0.00
2022-08-12T03:27:16.000Z,0.00
2022-08-12T03:27:46.000Z,0.00
2022-08-12T03:28:16.000Z,0.00
2022-08-12T03:28:36.000Z,0.00
2022-08-12T03:29:06.000Z,0.00
2022-08-12T03:29:36.000Z,0.00
2022-08-12T03:29:52.000Z,0.00
2022-08-12T03:30:26.000Z,0.00
2022-08-12T03:30:47.000Z,0.00
2022-08-12T03:31:16.000Z,0.00
2022-08-12T03:31:46.000Z,0.00
2022-08-12T03:32:16.000Z,0.00
2022-08-12T03:32:36.000Z,0.00
2022-08-12T03:33:06.000Z,0.00
2022-08-12T03:33:37.000Z,0.00
2022-08-12T03:34:11.000Z,0.00
2022-08-12T03:34:51.000Z,0.00
2022-08-12T03:35:16.000Z,0.00
2022-08-12T03:35:43.000Z,0.00
2022-08-12T03:35:59.000Z,0.00
2022-08-12T03:36:16.000Z,0.00
2022-08-12T03:36:46.000Z,0.00
2022-08-12T03:37:08.000Z,0.00
2022-08-12T03:37:36.000Z,0.00
2022-08-12T03:38:11.000Z,0.00
2022-08-12T03:38:41.000Z,0.00
2022-08-12T03:39:16.000Z,0.00
2022-08-12T03:39:46.000Z,0.00
2022-08-12T03:40:16.000Z,0.00
2022-08-12T03:40:44.000Z,0.00
2022-08-12T03:41:06.000Z,0.00
2022-08-12T03:41:36.000Z,0.00
2022-08-12T03:42:11.000Z,0.00
2022-08-12T03:42:41.000Z,0.00
2022-08-12T03:43:16.000Z,0.00
2022-08-12T03:43:55.000Z,0.00
2022-08-12T03:44:19.000Z,0.00
2022-08-12T03:44:45.000Z,0.00
2022-08-12T03:45:08.000Z,0.00
2022-08-12T03:45:35.000Z,0.00
2022-08-12T03:46:11.000Z,0.00
2022-08-12T03:46:50.000Z,0.00
2022-08-12T03:47:15.000Z,0.00
2022-08-12T03:47:43.000Z,0.00
2022-08-12T03:48:15.000Z,0.00
2022-08-12T03:48:45.000Z,0.00
2022-08-12T03:49:08.000Z,0.00
2022-08-12T03:49:35.000Z,0.00
2022-08-12T03:50:11.000Z,0.00
2022-08-12T03:50:51.000Z,0.00
2022-08-12T03:51:16.000Z,0.00
2022-08-12T03:51:46.000Z,0.00
2022-08-12T03:52:16.000Z,0.00
2022-08-12T03:52:44.000Z,0.00
2022-08-12T03:53:06.000Z,0.00
2022-08-12T03:53:36.000Z,0.00
2022-08-12T03:54:11.000Z,0.00
2022-08-12T03:54:41.000Z,0.00
2022-08-12T03:55:16.000Z,0.36
2022-08-12T03:55:46.000Z,0.00
2022-08-12T03:56:16.000Z,0.00
2022-08-12T03:56:44.000Z,0.00
2022-08-12T03:57:06.000Z,0.00
2022-08-12T03:57:45.000Z,0.00
2022-08-12T03:58:12.000Z,0.00
2022-08-12T03:58:41.000Z,0.00
2022-08-12T03:59:16.000Z,0.00
2022-08-12T03:59:46.000Z,0.00
2022-08-12T04:00:16.000Z,0.00
2022-08-12T04:00:44.000Z,0.00
2022-08-12T04:01:06.000Z,0.00
2022-08-12T04:01:36.000Z,0.00
2022-08-12T04:02:11.000Z,0.00
2022-08-12T04:02:41.000Z,0.36
2022-08-12T04:03:16.000Z,0.00
2022-08-12T04:03:46.000Z,0.85
2022-08-12T04:04:16.000Z,0.85
2022-08-12T04:04:44.000Z,0.36
2022-08-12T04:05:06.000Z,0.36
2022-08-12T04:05:36.000Z,0.36
2022-08-12T04:06:12.000Z,0.85
2022-08-12T04:06:41.000Z,1.22
2022-08-12T04:07:16.000Z,1.71
2022-08-12T04:07:46.000Z,0.85
2022-08-12T04:08:19.000Z,1.22
2022-08-12T04:08:44.000Z,2.08
2022-08-12T04:09:06.000Z,2.08
2022-08-12T04:09:36.000Z,1.71
2022-08-12T04:10:11.000Z,2.08
2022-08-12T04:10:41.000Z,2.57
2022-08-12T04:11:11.000Z,2.57
2022-08-12T04:11:35.000Z,2.08
2022-08-12T04:12:10.000Z,2.94
2022-08-12T04:12:35.000Z,2.94
2022-08-12T04:13:03.000Z,2.57
2022-08-12T04:13:29.000Z,2.57
2022-08-12T04:13:55.000Z,3.79
2022-08-12T04:14:26.000Z,3.79
2022-08-12T04:14:47.000Z,3.79
2022-08-12T04:15:16.000Z,3.79
2022-08-12T04:15:46.000Z,4.77
2022-08-12T04:16:16.000Z,4.28
2022-08-12T04:16:44.000Z,4.28
2022-08-12T04:17:06.000Z,4.28
2022-08-12T04:17:36.000Z,4.77
2022-08-12T04:18:11.000Z,5.14
2022-08-12T04:18:41.000Z,5.14
2022-08-12T04:19:16.000Z,5.99
2022-08-12T04:19:46.000Z,5.63
2022-08-12T04:20:25.000Z,6.48
2022-08-12T04:20:52.000Z,5.63
2022-08-12T04:21:19.000Z,6.85
2022-08-12T04:21:45.000Z,6.48
2022-08-12T04:22:10.000Z,7.34
2022-08-12T04:22:39.000Z,7.34
2022-08-12T04:23:02.000Z,7.70
2022-08-12T04:23:31.000Z,7.70
2022-08-12T04:24:01.000Z,7.70
2022-08-12T04:24:36.000Z,8.19
2022-08-12T04:25:06.000Z,8.56
2022-08-12T04:25:36.000Z,9.05
2022-08-12T04:26:11.000Z,9.54
2022-08-12T04:26:41.000Z,8.56
2022-08-12T04:27:16.000Z,9.05
2022-08-12T04:27:46.000Z,9.54
2022-08-12T04:27:46.000Z,9.54
2022-08-12T04:28:16.000Z,10.77
2022-08-12T04:28:16.000Z,10.77
2022-08-12T04:28:44.000Z,9.91
2022-08-12T04:28:44.000Z,9.91
2022-08-12T04:29:06.000Z,10.39
2022-08-12T04:29:06.000Z,10.39
2022-08-12T04:29:36.000Z,10.77
2022-08-12T04:29:36.000Z,10.77
2022-08-12T04:30:07.000Z,10.39
2022-08-12T04:30:40.000Z,11.25
2022-08-12T04:31:11.000Z,12.11
2022-08-12T04:31:29.000Z,12.11
2022-08-12T04:31:55.000Z,12.11
2022-08-12T04:32:18.000Z,12.48
2022-08-12T04:32:45.000Z,12.48
2022-08-12T04:33:06.000Z,12.97
2022-08-12T04:33:36.000Z,13.82
2022-08-12T04:33:52.000Z,13.82
2022-08-12T04:34:26.000Z,13.33
2022-08-12T04:34:47.000Z,14.31
2022-08-12T04:35:16.000Z,14.31
2022-08-12T04:35:46.000Z,13.82
2022-08-12T04:36:16.000Z,14.68
2022-08-12T04:36:44.000Z,14.31
2022-08-12T04:37:06.000Z,15.17
2022-08-12T04:37:36.000Z,15.17
2022-08-12T04:37:53.000Z,15.53
2022-08-12T04:38:26.000Z,16.02
2022-08-12T04:38:47.000Z,16.02
2022-08-12T04:39:15.000Z,16.88
2022-08-12T04:39:43.000Z,16.39
2022-08-12T04:40:10.000Z,17.25
2022-08-12T04:40:35.000Z,17.25
2022-08-12T04:41:03.000Z,17.25
2022-08-12T04:41:41.000Z,17.73
2022-08-12T04:42:11.000Z,18.11
2022-08-12T04:42:41.000Z,18.60
2022-08-12T04:43:16.000Z,19.08
2022-08-12T04:43:46.000Z,19.08
2022-08-12T04:44:36.000Z,18.60
2022-08-12T04:45:06.000Z,19.94
2022-08-12T04:45:36.000Z,19.94
2022-08-12T04:46:11.000Z,19.45
2022-08-12T04:46:41.000Z,19.94
2022-08-12T04:47:16.000Z,21.16
2022-08-12T04:47:46.000Z,20.31
2022-08-12T04:48:16.000Z,20.80
2022-08-12T04:48:35.000Z,22.02
2022-08-12T04:49:03.000Z,21.65
2022-08-12T04:49:36.000Z,22.87
2022-08-12T04:49:55.000Z,23.36
2022-08-12T04:50:23.000Z,22.51
2022-08-12T04:50:50.000Z,22.02
2022-08-12T04:51:15.000Z,23.85
2022-08-12T04:51:43.000Z,23.85
2022-08-12T04:52:10.000Z,24.22
2022-08-12T04:52:35.000Z,24.22
2022-08-12T04:53:03.000Z,24.22
2022-08-12T04:53:29.000Z,24.71
2022-08-12T04:53:57.000Z,25.07
2022-08-12T04:54:23.000Z,26.42
2022-08-12T04:54:50.000Z,26.42
2022-08-12T04:55:15.000Z,26.79
2022-08-12T04:55:43.000Z,27.65
2022-08-12T04:56:17.000Z,27.65
2022-08-12T04:56:45.000Z,28.99
2022-08-12T04:57:06.000Z,28.99
2022-08-12T04:57:36.000Z,28.99
2022-08-12T04:57:52.000Z,29.85
2022-08-12T04:58:26.000Z,29.85
2022-08-12T04:58:47.000Z,29.85
2022-08-12T04:59:16.000Z,31.19
2022-08-12T04:59:46.000Z,30.70
2022-08-12T05:00:16.000Z,31.56
2022-08-12T05:00:44.000Z,32.05
2022-08-12T05:01:06.000Z,31.56
2022-08-12T05:01:36.000Z,31.56
2022-08-12T05:02:11.000Z,32.42
2022-08-12T05:02:41.000Z,33.39
2022-08-12T05:03:25.000Z,33.76
2022-08-12T05:03:55.000Z,34.25
2022-08-12T05:04:16.000Z,35.48
2022-08-12T05:04:44.000Z,34.62
2022-08-12T05:05:06.000Z,35.48
2022-08-12T05:05:36.000Z,35.48
2022-08-12T05:06:11.000Z,35.97
2022-08-12T05:06:41.000Z,36.33
2022-08-12T05:07:16.000Z,36.82
2022-08-12T05:07:46.000Z,37.19
2022-08-12T05:08:16.000Z,37.68
2022-08-12T05:08:44.000Z,38.17
2022-08-12T05:09:06.000Z,38.17
2022-08-12T05:09:36.000Z,39.02
2022-08-12T05:10:11.000Z,39.02
2022-08-12T05:10:42.000Z,39.39
2022-08-12T05:11:16.000Z,40.24
2022-08-12T05:11:46.000Z,40.73
2022-08-12T05:12:16.000Z,41.59
2022-08-12T05:12:44.000Z,41.59
2022-08-12T05:13:06.000Z,40.24
2022-08-12T05:13:36.000Z,41.10
2022-08-12T05:14:11.000Z,42.45
2022-08-12T05:14:41.000Z,42.45
2022-08-12T05:15:16.000Z,43.31
2022-08-12T05:16:00.000Z,43.31
2022-08-12T05:16:36.000Z,43.80
2022-08-12T05:17:06.000Z,44.16
2022-08-12T05:17:36.000Z,44.16
2022-08-12T05:17:56.000Z,44.65
2022-08-12T05:18:26.000Z,45.02
2022-08-12T05:18:47.000Z,45.02
2022-08-12T05:19:16.000Z,45.87
2022-08-12T05:19:46.000Z,45.87
2022-08-12T05:20:16.000Z,46.73
2022-08-12T05:20:44.000Z,47.22
2022-08-12T05:21:06.000Z,47.22
2022-08-12T05:21:36.000Z,48.56
2022-08-12T05:22:11.000Z,48.56
2022-08-12T05:22:41.000Z,48.56
2022-08-12T05:23:16.000Z,48.93
2022-08-12T05:23:46.000Z,48.93
2022-08-12T05:24:26.000Z,50.28
2022-08-12T05:24:44.000Z,50.28
2022-08-12T05:25:06.000Z,51.14
2022-08-12T05:25:36.000Z,51.14
2022-08-12T05:26:11.000Z,51.14
2022-08-12T05:26:41.000Z,51.14
2022-08-12T05:27:16.000Z,51.99
2022-08-12T05:27:46.000Z,53.34
2022-08-12T05:28:16.000Z,52.85
2022-08-12T05:28:44.000Z,52.85
2022-08-12T05:29:06.000Z,54.19
2022-08-12T05:29:36.000Z,54.56
2022-08-12T05:30:11.000Z,54.56
2022-08-12T05:30:41.000Z,55.41
2022-08-12T05:31:17.000Z,55.90
2022-08-12T05:31:43.000Z,56.27
2022-08-12T05:32:01.000Z,56.27
2022-08-12T05:32:36.000Z,57.25
2022-08-12T05:33:06.000Z,57.25
2022-08-12T05:33:36.000Z,58.11
2022-08-12T05:34:11.000Z,58.48
2022-08-12T05:34:41.000Z,59.82
2022-08-12T05:35:16.000Z,59.82
2022-08-12T05:35:46.000Z,60.19
2022-08-12T05:36:16.000Z,61.53
2022-08-12T05:36:44.000Z,62.02
2022-08-12T05:37:06.000Z,63.24
2022-08-12T05:37:36.000Z,64.10
2022-08-12T05:38:11.000Z,65.94
2022-08-12T05:38:51.000Z,68.87
2022-08-12T05:39:16.000Z,71.93
2022-08-12T05:39:43.000Z,75.48
2022-08-12T05:40:11.000Z,76.70
2022-08-12T05:40:36.000Z,79.27
2022-08-12T05:41:03.000Z,81.48
2022-08-12T05:41:29.000Z,83.19
2022-08-12T05:41:56.000Z,84.04
2022-08-12T05:42:23.000Z,85.39
2022-08-12T05:43:02.000Z,85.39
2022-08-12T05:43:27.000Z,85.39
2022-08-12T05:43:46.000Z,86.73
2022-08-12T05:44:16.000Z,86.24
2022-08-12T05:44:44.000Z,86.73
2022-08-12T05:45:07.000Z,87.96
2022-08-12T05:45:36.000Z,89.31
2022-08-12T05:46:11.000Z,88.82
2022-08-12T05:46:41.000Z,89.31
2022-08-12T05:47:16.000Z,90.16
2022-08-12T05:47:46.000Z,90.65
2022-08-12T05:48:16.000Z,91.51
2022-08-12T05:48:44.000Z,91.87
2022-08-12T05:49:06.000Z,93.22
2022-08-12T05:49:36.000Z,94.07
2022-08-12T05:50:11.000Z,93.58
2022-08-12T05:50:51.000Z,95.42
2022-08-12T05:51:16.000Z,96.27
2022-08-12T05:51:43.000Z,96.27
2022-08-12T05:52:11.000Z,96.65
2022-08-12T05:52:36.000Z,98.85
2022-08-12T05:52:36.000Z,98.85
2022-08-12T05:53:06.000Z,100.19
2022-08-12T05:53:06.000Z,100.19
2022-08-12T05:53:36.000Z,101.41
2022-08-12T05:53:36.000Z,101.41
2022-08-12T05:54:11.000Z,102.76
2022-08-12T05:54:11.000Z,102.76
2022-08-12T05:54:39.000Z,105.33
2022-08-12T05:54:39.000Z,105.33
2022-08-12T05:54:55.000Z,105.33
2022-08-12T05:55:31.000Z,106.19
2022-08-12T05:56:00.000Z,106.19
2022-08-12T05:56:36.000Z,107.53
2022-08-12T05:57:06.000Z,107.04
2022-08-12T05:57:36.000Z,108.39
2022-08-12T05:58:11.000Z,108.88
2022-08-12T05:58:41.000Z,110.59
2022-08-12T05:59:26.000Z,111.82
2022-08-12T05:59:56.000Z,112.30
2022-08-12T06:00:16.000Z,113.65
2022-08-12T06:00:44.000Z,113.16
2022-08-12T06:01:06.000Z,114.51
2022-08-12T06:01:36.000Z,115.36
2022-08-12T06:02:11.000Z,115.36
2022-08-12T06:02:41.000Z,116.22
2022-08-12T06:03:11.000Z,116.22
2022-08-12T06:03:27.000Z,117.44
2022-08-12T06:03:46.000Z,117.93
2022-08-12T06:04:16.000Z,119.64
2022-08-12T06:04:44.000Z,119.27
2022-08-12T06:05:06.000Z,120.50
2022-08-12T06:05:06.000Z,120.50